sensor_id;sensor_type;location;lat;lon;timestamp;pressure;altitude;pressure_sealevel;temperature;humidity
47883;BME280;37739;50.350;7.578;2023-05-06T00:01:51;99796.75;;;16.27;67.40
47883;BME280;37739;50.350;7.578;2023-05-06T00:04:22;99790.69;;;16.25;67.94
47883;BME280;37739;50.350;7.578;2023-05-06T00:06:47;99794.09;;;16.24;67.36
47883;BME280;37739;50.350;7.578;2023-05-06T00:09:13;99788.88;;;16.19;67.71
47883;BME280;37739;50.350;7.578;2023-05-06T00:11:38;99787.09;;;16.15;67.85
47883;BME280;37739;50.350;7.578;2023-05-06T00:14:04;99784.44;;;16.09;68.39
47883;BME280;37739;50.350;7.578;2023-05-06T00:16:30;99788.69;;;16.07;68.10
47883;BME280;37739;50.350;7.578;2023-05-06T00:18:57;99787.78;;;16.03;68.33
47883;BME280;37739;50.350;7.578;2023-05-06T00:21:23;99783.44;;;16.02;68.30
47883;BME280;37739;50.350;7.578;2023-05-06T00:23:51;99783.38;;;15.99;68.32
47883;BME280;37739;50.350;7.578;2023-05-06T00:26:17;99778.06;;;15.88;68.98
47883;BME280;37739;50.350;7.578;2023-05-06T00:28:42;99786.31;;;15.66;70.30
47883;BME280;37739;50.350;7.578;2023-05-06T00:31:10;99790.38;;;15.50;70.33
47883;BME280;37739;50.350;7.578;2023-05-06T00:33:35;99793.16;;;15.64;69.71
47883;BME280;37739;50.350;7.578;2023-05-06T00:36:01;99788.09;;;15.68;69.48
47883;BME280;37739;50.350;7.578;2023-05-06T00:38:26;99788.97;;;15.72;69.57
47883;BME280;37739;50.350;7.578;2023-05-06T00:40:52;99781.31;;;15.75;69.02
47883;BME280;37739;50.350;7.578;2023-05-06T00:43:17;99783.91;;;15.75;69.02
47883;BME280;37739;50.350;7.578;2023-05-06T00:45:46;99781.22;;;15.72;68.78
47883;BME280;37739;50.350;7.578;2023-05-06T00:48:12;99785.50;;;15.68;69.04
47883;BME280;37739;50.350;7.578;2023-05-06T00:50:38;99780.34;;;15.68;68.98
47883;BME280;37739;50.350;7.578;2023-05-06T00:53:08;99772.50;;;15.65;68.98
47883;BME280;37739;50.350;7.578;2023-05-06T00:55:33;99775.03;;;15.62;68.96
47883;BME280;37739;50.350;7.578;2023-05-06T00:57:59;99774.13;;;15.59;69.10
47883;BME280;37739;50.350;7.578;2023-05-06T01:00:25;99772.34;;;15.53;69.43
47883;BME280;37739;50.350;7.578;2023-05-06T01:02:53;99762.00;;;15.53;69.04
47883;BME280;37739;50.350;7.578;2023-05-06T01:05:20;99762.75;;;15.49;69.15
47883;BME280;37739;50.350;7.578;2023-05-06T01:08:05;99766.13;;;15.45;69.19
47883;BME280;37739;50.350;7.578;2023-05-06T01:10:40;99764.34;;;15.41;69.40
47883;BME280;37739;50.350;7.578;2023-05-06T01:13:13;99759.97;;;15.37;69.32
47883;BME280;37739;50.350;7.578;2023-05-06T01:15:46;99752.19;;;15.35;69.59
47883;BME280;37739;50.350;7.578;2023-05-06T01:18:16;99759.91;;;15.34;69.75
47883;BME280;37739;50.350;7.578;2023-05-06T01:20:48;99758.78;;;15.18;70.18
47883;BME280;37739;50.350;7.578;2023-05-06T01:23:17;99755.97;;;15.04;70.64
47883;BME280;37739;50.350;7.578;2023-05-06T01:25:45;99755.97;;;15.04;70.49
47883;BME280;37739;50.350;7.578;2023-05-06T01:28:11;99756.03;;;15.07;70.79
47883;BME280;37739;50.350;7.578;2023-05-06T01:33:36;99760.41;;;15.12;71.46
47883;BME280;37739;50.350;7.578;2023-05-06T01:41:26;99747.34;;;15.03;70.67
47883;BME280;37739;50.350;7.578;2023-05-06T01:43:54;99751.66;;;15.04;70.85
47883;BME280;37739;50.350;7.578;2023-05-06T01:46:22;99755.91;;;14.99;71.01
47883;BME280;37739;50.350;7.578;2023-05-06T01:48:52;99754.06;;;14.95;71.22
47883;BME280;37739;50.350;7.578;2023-05-06T01:51:20;99762.69;;;14.94;70.99
47883;BME280;37739;50.350;7.578;2023-05-06T01:53:50;99751.47;;;14.94;71.03
47883;BME280;37739;50.350;7.578;2023-05-06T01:56:15;99750.59;;;14.91;71.02
47883;BME280;37739;50.350;7.578;2023-05-06T01:58:45;99760.88;;;14.90;71.49
47883;BME280;37739;50.350;7.578;2023-05-06T02:01:10;99755.59;;;14.84;71.34
47883;BME280;37739;50.350;7.578;2023-05-06T02:03:36;99766.72;;;14.81;71.59
47883;BME280;37739;50.350;7.578;2023-05-06T02:06:01;99772.75;;;14.80;71.44
47883;BME280;37739;50.350;7.578;2023-05-06T02:08:27;99770.94;;;14.76;71.37
47883;BME280;37739;50.350;7.578;2023-05-06T02:10:54;99772.63;;;14.76;71.44
47883;BME280;37739;50.350;7.578;2023-05-06T02:13:22;99770.84;;;14.71;71.36
47883;BME280;37739;50.350;7.578;2023-05-06T02:15:51;99777.56;;;14.63;71.94
47883;BME280;37739;50.350;7.578;2023-05-06T02:18:17;99778.41;;;14.62;71.38
47883;BME280;37739;50.350;7.578;2023-05-06T02:20:45;99781.75;;;14.58;71.12
47883;BME280;37739;50.350;7.578;2023-05-06T02:23:10;99776.47;;;14.53;71.16
47883;BME280;37739;50.350;7.578;2023-05-06T02:25:35;99779.81;;;14.48;71.49
47883;BME280;37739;50.350;7.578;2023-05-06T02:28:05;99781.53;;;14.47;71.41
47883;BME280;37739;50.350;7.578;2023-05-06T02:30:31;99778.00;;;14.44;71.73
47883;BME280;37739;50.350;7.578;2023-05-06T02:32:58;99780.47;;;14.39;71.82
47883;BME280;37739;50.350;7.578;2023-05-06T02:35:24;99788.16;;;14.36;71.88
47883;BME280;37739;50.350;7.578;2023-05-06T02:37:51;99781.28;;;14.37;71.73
47883;BME280;37739;50.350;7.578;2023-05-06T02:40:17;99787.97;;;14.27;72.03
47883;BME280;37739;50.350;7.578;2023-05-06T02:42:42;99780.19;;;14.25;72.02
47883;BME280;37739;50.350;7.578;2023-05-06T02:45:10;99776.78;;;14.28;71.40
47883;BME280;37739;50.350;7.578;2023-05-06T02:47:38;99775.88;;;14.26;71.59
47883;BME280;37739;50.350;7.578;2023-05-06T02:50:03;99781.81;;;14.22;71.74
47883;BME280;37739;50.350;7.578;2023-05-06T02:52:29;99776.63;;;14.20;71.61
47883;BME280;37739;50.350;7.578;2023-05-06T02:55:00;99774.81;;;14.14;71.89
47883;BME280;37739;50.350;7.578;2023-05-06T02:57:25;99779.84;;;14.10;71.86
47883;BME280;37739;50.350;7.578;2023-05-06T02:59:53;99774.66;;;14.08;71.93
47883;BME280;37739;50.350;7.578;2023-05-06T03:02:18;99776.28;;;14.05;71.79
47883;BME280;37739;50.350;7.578;2023-05-06T03:04:43;99778.84;;;14.03;72.04
47883;BME280;37739;50.350;7.578;2023-05-06T03:07:09;99775.38;;;14.03;71.94
47883;BME280;37739;50.350;7.578;2023-05-06T03:09:37;99774.47;;;13.99;72.27
47883;BME280;37739;50.350;7.578;2023-05-06T03:12:03;99775.28;;;13.98;72.61
47883;BME280;37739;50.350;7.578;2023-05-06T03:14:30;99775.19;;;13.95;72.98
47883;BME280;37739;50.350;7.578;2023-05-06T03:16:55;99777.59;;;13.86;74.16
47883;BME280;37739;50.350;7.578;2023-05-06T03:19:21;99777.59;;;13.86;73.66
47883;BME280;37739;50.350;7.578;2023-05-06T03:21:49;99776.47;;;13.74;74.32
47883;BME280;37739;50.350;7.578;2023-05-06T03:24:16;99774.75;;;13.75;74.30
47883;BME280;37739;50.350;7.578;2023-05-06T03:26:44;99772.94;;;13.71;75.00
47883;BME280;37739;50.350;7.578;2023-05-06T03:29:09;99770.41;;;13.72;74.25
47883;BME280;37739;50.350;7.578;2023-05-06T03:31:37;99774.53;;;13.66;74.43
47883;BME280;37739;50.350;7.578;2023-05-06T03:34:02;99779.63;;;13.64;74.72
47883;BME280;37739;50.350;7.578;2023-05-06T03:36:28;99778.78;;;13.64;74.63
47883;BME280;37739;50.350;7.578;2023-05-06T03:38:53;99778.72;;;13.61;74.79
47883;BME280;37739;50.350;7.578;2023-05-06T03:41:22;99777.00;;;13.61;74.50
47883;BME280;37739;50.350;7.578;2023-05-06T03:43:48;99780.41;;;13.60;74.41
47883;BME280;37739;50.350;7.578;2023-05-06T03:46:13;99780.41;;;13.60;74.10
47883;BME280;37739;50.350;7.578;2023-05-06T03:48:39;99778.63;;;13.58;73.89
47883;BME280;37739;50.350;7.578;2023-05-06T03:51:09;99775.97;;;13.54;74.07
47883;BME280;37739;50.350;7.578;2023-05-06T03:53:37;99773.28;;;13.50;74.44
47883;BME280;37739;50.350;7.578;2023-05-06T03:56:05;99776.69;;;13.49;74.64
47883;BME280;37739;50.350;7.578;2023-05-06T03:58:33;99780.91;;;13.45;74.21
47883;BME280;37739;50.350;7.578;2023-05-06T04:00:58;99778.34;;;13.47;74.40
47883;BME280;37739;50.350;7.578;2023-05-06T04:03:27;99775.75;;;13.45;74.41
47883;BME280;37739;50.350;7.578;2023-05-06T04:05:52;99775.72;;;13.44;74.85
47883;BME280;37739;50.350;7.578;2023-05-06T04:08:18;99779.16;;;13.44;74.98
47883;BME280;37739;50.350;7.578;2023-05-06T04:10:44;99784.22;;;13.40;75.02
47883;BME280;37739;50.350;7.578;2023-05-06T04:13:12;99780.69;;;13.36;75.17
47883;BME280;37739;50.350;7.578;2023-05-06T04:15:39;99783.16;;;13.33;75.14
47883;BME280;37739;50.350;7.578;2023-05-06T04:18:05;99787.22;;;13.25;75.52
47883;BME280;37739;50.350;7.578;2023-05-06T04:20:32;99787.19;;;13.23;75.40
47883;BME280;37739;50.350;7.578;2023-05-06T04:22:57;99794.94;;;13.25;75.39
47883;BME280;37739;50.350;7.578;2023-05-06T04:25:22;99803.50;;;13.24;75.22
47883;BME280;37739;50.350;7.578;2023-05-06T04:27:55;99794.84;;;13.22;75.52
47883;BME280;37739;50.350;7.578;2023-05-06T04:30:20;99800.91;;;13.24;74.83
47883;BME280;37739;50.350;7.578;2023-05-06T04:32:46;99798.34;;;13.24;75.00
47883;BME280;37739;50.350;7.578;2023-05-06T04:35:11;99798.41;;;13.25;74.69
47883;BME280;37739;50.350;7.578;2023-05-06T04:37:39;99799.25;;;13.26;74.43
47883;BME280;37739;50.350;7.578;2023-05-06T04:40:05;99806.94;;;13.23;74.38
47883;BME280;37739;50.350;7.578;2023-05-06T04:42:31;99805.16;;;13.22;74.20
47883;BME280;37739;50.350;7.578;2023-05-06T04:44:57;99806.94;;;13.23;74.30
47883;BME280;37739;50.350;7.578;2023-05-06T04:47:23;99806.06;;;13.24;74.12
47883;BME280;37739;50.350;7.578;2023-05-06T04:49:48;99809.56;;;13.26;73.84
47883;BME280;37739;50.350;7.578;2023-05-06T04:52:14;99809.53;;;13.24;74.01
47883;BME280;37739;50.350;7.578;2023-05-06T04:54:39;99815.47;;;13.22;74.02
47883;BME280;37739;50.350;7.578;2023-05-06T04:57:04;99812.13;;;13.24;73.74
47883;BME280;37739;50.350;7.578;2023-05-06T04:59:30;99818.94;;;13.22;74.04
47883;BME280;37739;50.350;7.578;2023-05-06T05:01:55;99824.09;;;13.22;74.15
47883;BME280;37739;50.350;7.578;2023-05-06T05:04:20;99825.78;;;13.22;74.29
47883;BME280;37739;50.350;7.578;2023-05-06T05:06:46;99834.41;;;13.22;74.59
47883;BME280;37739;50.350;7.578;2023-05-06T05:09:11;99821.56;;;13.25;74.26
47883;BME280;37739;50.350;7.578;2023-05-06T05:11:37;99823.41;;;13.29;73.94
47883;BME280;37739;50.350;7.578;2023-05-06T05:14:05;99831.13;;;13.29;73.77
47883;BME280;37739;50.350;7.578;2023-05-06T05:16:30;99835.41;;;13.29;73.90
47883;BME280;37739;50.350;7.578;2023-05-06T05:18:56;99831.97;;;13.28;73.73
47883;BME280;37739;50.350;7.578;2023-05-06T05:21:21;99840.66;;;13.30;73.90
47883;BME280;37739;50.350;7.578;2023-05-06T05:23:47;99838.13;;;13.33;73.88
47883;BME280;37739;50.350;7.578;2023-05-06T05:26:12;99841.63;;;13.35;73.72
47883;BME280;37739;50.350;7.578;2023-05-06T05:28:37;99845.91;;;13.35;74.24
47883;BME280;37739;50.350;7.578;2023-05-06T05:31:05;99839.94;;;13.36;73.90
47883;BME280;37739;50.350;7.578;2023-05-06T05:33:32;99838.97;;;13.32;74.12
47883;BME280;37739;50.350;7.578;2023-05-06T05:35:58;99836.50;;;13.37;73.93
47883;BME280;37739;50.350;7.578;2023-05-06T05:38:25;99840.84;;;13.38;73.92
47883;BME280;37739;50.350;7.578;2023-05-06T05:40:50;99845.88;;;13.33;74.70
47883;BME280;37739;50.350;7.578;2023-05-06T05:43:18;99840.84;;;13.38;74.58
47883;BME280;37739;50.350;7.578;2023-05-06T05:45:45;99839.28;;;13.45;74.22
47883;BME280;37739;50.350;7.578;2023-05-06T05:48:13;99842.00;;;13.49;74.32
47883;BME280;37739;50.350;7.578;2023-05-06T05:50:38;99843.75;;;13.50;74.50
47883;BME280;37739;50.350;7.578;2023-05-06T05:53:06;99842.56;;;13.38;75.00
47883;BME280;37739;50.350;7.578;2023-05-06T05:55:31;99840.97;;;13.43;74.80
47883;BME280;37739;50.350;7.578;2023-05-06T05:57:56;99847.19;;;13.51;74.45
47883;BME280;37739;50.350;7.578;2023-05-06T06:00:26;99846.47;;;13.57;74.47
47883;BME280;37739;50.350;7.578;2023-05-06T06:02:52;99847.56;;;13.65;74.49
47883;BME280;37739;50.350;7.578;2023-05-06T06:05:24;99849.47;;;13.73;74.15
47883;BME280;37739;50.350;7.578;2023-05-06T06:07:54;99846.13;;;13.78;73.94
47883;BME280;37739;50.350;7.578;2023-05-06T06:10:21;99841.16;;;13.85;74.08
47883;BME280;37739;50.350;7.578;2023-05-06T06:12:49;99840.53;;;13.94;73.32
47883;BME280;37739;50.350;7.578;2023-05-06T06:15:14;99841.63;;;14.04;73.12
47883;BME280;37739;50.350;7.578;2023-05-06T06:17:40;99836.69;;;14.13;72.89
47883;BME280;37739;50.350;7.578;2023-05-06T06:20:06;99838.63;;;14.23;72.30
47883;BME280;37739;50.350;7.578;2023-05-06T06:22:32;99838.78;;;14.31;72.34
47883;BME280;37739;50.350;7.578;2023-05-06T06:24:59;99841.47;;;14.34;72.12
47883;BME280;37739;50.350;7.578;2023-05-06T06:27:25;99844.94;;;14.36;72.21
47883;BME280;37739;50.350;7.578;2023-05-06T06:29:50;99845.91;;;14.41;72.01
47883;BME280;37739;50.350;7.578;2023-05-06T06:32:15;99845.16;;;14.45;72.14
47883;BME280;37739;50.350;7.578;2023-05-06T06:34:43;99849.41;;;14.45;72.17
47883;BME280;37739;50.350;7.578;2023-05-06T06:37:09;99846.72;;;14.39;72.38
47883;BME280;37739;50.350;7.578;2023-05-06T06:39:35;99840.72;;;14.40;72.52
47883;BME280;37739;50.350;7.578;2023-05-06T06:42:00;99841.13;;;14.58;72.22
47883;BME280;37739;50.350;7.578;2023-05-06T06:44:32;99840.56;;;14.71;72.36
47883;BME280;37739;50.350;7.578;2023-05-06T06:47:00;99838.03;;;14.73;72.07
47883;BME280;37739;50.350;7.578;2023-05-06T06:49:31;99846.00;;;14.84;71.69
47883;BME280;37739;50.350;7.578;2023-05-06T06:51:57;99844.34;;;14.89;71.27
47883;BME280;37739;50.350;7.578;2023-05-06T06:54:22;99846.16;;;14.93;70.96
47883;BME280;37739;50.350;7.578;2023-05-06T06:56:48;99847.09;;;14.97;71.07
47883;BME280;37739;50.350;7.578;2023-05-06T06:59:13;99850.53;;;14.96;71.28
47883;BME280;37739;50.350;7.578;2023-05-06T07:01:40;99846.97;;;14.90;71.03
47883;BME280;37739;50.350;7.578;2023-05-06T07:04:08;99851.44;;;14.98;70.76
47883;BME280;37739;50.350;7.578;2023-05-06T07:06:36;99851.56;;;15.04;70.71
47883;BME280;37739;50.350;7.578;2023-05-06T07:09:01;99854.19;;;15.05;70.35
47883;BME280;37739;50.350;7.578;2023-05-06T07:11:27;99859.38;;;15.07;70.47
47883;BME280;37739;50.350;7.578;2023-05-06T07:13:54;99856.88;;;15.11;70.42
47883;BME280;37739;50.350;7.578;2023-05-06T07:16:20;99855.56;;;15.34;69.87
47883;BME280;37739;50.350;7.578;2023-05-06T07:18:45;99858.50;;;15.54;69.09
47883;BME280;37739;50.350;7.578;2023-05-06T07:21:10;99855.34;;;15.68;68.59
47883;BME280;37739;50.350;7.578;2023-05-06T07:23:42;99850.31;;;15.76;68.41
47883;BME280;37739;50.350;7.578;2023-05-06T07:26:10;99846.16;;;15.87;68.27
47883;BME280;37739;50.350;7.578;2023-05-06T07:28:43;99853.38;;;16.07;67.58
47883;BME280;37739;50.350;7.578;2023-05-06T07:31:11;99850.75;;;16.04;67.17
47883;BME280;37739;50.350;7.578;2023-05-06T07:33:40;99853.53;;;16.16;67.35
47883;BME280;37739;50.350;7.578;2023-05-06T07:36:07;99845.94;;;16.27;67.04
47883;BME280;37739;50.350;7.578;2023-05-06T07:38:32;99856.41;;;16.35;66.76
47883;BME280;37739;50.350;7.578;2023-05-06T07:41:00;99853.69;;;16.27;67.12
47883;BME280;37739;50.350;7.578;2023-05-06T07:43:25;99861.81;;;16.52;66.95
47883;BME280;37739;50.350;7.578;2023-05-06T07:45:51;99864.72;;;16.76;66.41
47883;BME280;37739;50.350;7.578;2023-05-06T07:48:16;99858.91;;;16.93;65.83
47883;BME280;37739;50.350;7.578;2023-05-06T07:50:45;99858.31;;;17.14;65.07
47883;BME280;37739;50.350;7.578;2023-05-06T07:53:13;99854.06;;;17.19;65.12
47883;BME280;37739;50.350;7.578;2023-05-06T07:55:38;99859.47;;;17.42;64.57
47883;BME280;37739;50.350;7.578;2023-05-06T07:58:04;99863.78;;;17.41;64.53
47883;BME280;37739;50.350;7.578;2023-05-06T08:00:29;99875.91;;;17.42;64.31
47883;BME280;37739;50.350;7.578;2023-05-06T08:02:57;99869.03;;;17.46;64.66
47883;BME280;37739;50.350;7.578;2023-05-06T08:05:25;99882.72;;;17.34;64.68
47883;BME280;37739;50.350;7.578;2023-05-06T08:07:50;99881.84;;;17.34;64.73
47883;BME280;37739;50.350;7.578;2023-05-06T08:10:15;99877.72;;;17.50;64.22
47883;BME280;37739;50.350;7.578;2023-05-06T08:12:44;99882.16;;;17.64;63.49
47883;BME280;37739;50.350;7.578;2023-05-06T08:15:09;99886.69;;;17.84;63.42
47883;BME280;37739;50.350;7.578;2023-05-06T08:17:35;99872.06;;;17.92;62.43
47883;BME280;37739;50.350;7.578;2023-05-06T08:20:06;99878.81;;;17.78;61.96
47883;BME280;37739;50.350;7.578;2023-05-06T08:22:31;99876.50;;;18.04;62.32
47883;BME280;37739;50.350;7.578;2023-05-06T08:24:56;99876.59;;;18.19;61.04
47883;BME280;37739;50.350;7.578;2023-05-06T08:27:22;99876.69;;;18.32;61.26
47883;BME280;37739;50.350;7.578;2023-05-06T08:29:48;99865.50;;;18.43;60.59
47883;BME280;37739;50.350;7.578;2023-05-06T08:32:13;99873.41;;;18.67;60.28
47883;BME280;37739;50.350;7.578;2023-05-06T08:34:38;99863.91;;;18.67;59.81
47883;BME280;37739;50.350;7.578;2023-05-06T08:37:04;99863.09;;;18.79;58.78
47883;BME280;37739;50.350;7.578;2023-05-06T08:39:31;99864.03;;;18.87;58.18
47883;BME280;37739;50.350;7.578;2023-05-06T08:41:58;99860.66;;;19.14;58.55
47883;BME280;37739;50.350;7.578;2023-05-06T08:44:25;99857.19;;;19.09;58.16
47883;BME280;37739;50.350;7.578;2023-05-06T08:46:51;99858.00;;;19.00;58.67
47883;BME280;37739;50.350;7.578;2023-05-06T08:49:16;99856.13;;;18.73;58.77
47883;BME280;37739;50.350;7.578;2023-05-06T08:51:47;99857.00;;;18.74;59.80
47883;BME280;37739;50.350;7.578;2023-05-06T08:54:18;99858.84;;;18.89;58.36
47883;BME280;37739;50.350;7.578;2023-05-06T08:56:51;99857.03;;;18.78;58.86
47883;BME280;37739;50.350;7.578;2023-05-06T08:59:24;99851.84;;;18.78;58.16
47883;BME280;37739;50.350;7.578;2023-05-06T09:01:51;99850.13;;;18.82;58.68
47883;BME280;37739;50.350;7.578;2023-05-06T09:04:18;99858.03;;;19.02;58.25
47883;BME280;37739;50.350;7.578;2023-05-06T09:06:43;99846.84;;;19.35;57.48
47883;BME280;37739;50.350;7.578;2023-05-06T09:09:12;99845.16;;;19.56;57.12
47883;BME280;37739;50.350;7.578;2023-05-06T09:11:39;99847.75;;;19.65;56.86
47883;BME280;37739;50.350;7.578;2023-05-06T09:14:16;99849.47;;;19.65;56.23
47883;BME280;37739;50.350;7.578;2023-05-06T09:16:43;99840.81;;;19.59;54.44
47883;BME280;37739;50.350;7.578;2023-05-06T09:19:10;99839.94;;;19.59;55.74
47883;BME280;37739;50.350;7.578;2023-05-06T09:21:42;99846.88;;;19.66;54.49
47883;BME280;37739;50.350;7.578;2023-05-06T09:24:09;99839.94;;;19.57;54.30
47883;BME280;37739;50.350;7.578;2023-05-06T09:26:37;99840.84;;;19.79;54.78
47883;BME280;37739;50.350;7.578;2023-05-06T09:29:07;99837.38;;;20.00;54.22
47883;BME280;37739;50.350;7.578;2023-05-06T09:31:42;99838.22;;;20.10;53.41
47883;BME280;37739;50.350;7.578;2023-05-06T09:34:08;99838.22;;;20.07;52.98
47883;BME280;37739;50.350;7.578;2023-05-06T09:36:39;99837.34;;;20.17;53.50
47883;BME280;37739;50.350;7.578;2023-05-06T09:39:04;99835.59;;;20.36;53.65
47883;BME280;37739;50.350;7.578;2023-05-06T09:41:30;99835.53;;;20.67;52.82
47883;BME280;37739;50.350;7.578;2023-05-06T09:43:56;99828.44;;;21.00;51.33
47883;BME280;37739;50.350;7.578;2023-05-06T09:46:27;99829.97;;;21.33;51.63
47883;BME280;37739;50.350;7.578;2023-05-06T09:48:54;99834.22;;;21.53;50.29
47883;BME280;37739;50.350;7.578;2023-05-06T09:51:20;99821.81;;;21.83;50.17
47883;BME280;37739;50.350;7.578;2023-05-06T09:53:48;99813.25;;;21.61;47.37
47883;BME280;37739;50.350;7.578;2023-05-06T09:56:16;99815.06;;;21.54;47.32
47883;BME280;37739;50.350;7.578;2023-05-06T09:58:42;99814.13;;;21.64;49.51
47883;BME280;37739;50.350;7.578;2023-05-06T10:01:08;99816.44;;;21.98;47.83
47883;BME280;37739;50.350;7.578;2023-05-06T10:03:36;99816.53;;;21.87;48.72
47883;BME280;37739;50.350;7.578;2023-05-06T10:06:06;99807.91;;;21.77;47.14
47883;BME280;37739;50.350;7.578;2023-05-06T10:08:36;99812.16;;;21.89;45.34
47883;BME280;37739;50.350;7.578;2023-05-06T10:11:06;99798.09;;;22.06;47.62
47883;BME280;37739;50.350;7.578;2023-05-06T10:13:36;99799.50;;;22.38;47.42
47883;BME280;37739;50.350;7.578;2023-05-06T10:16:03;99797.44;;;22.64;47.05
47883;BME280;37739;50.350;7.578;2023-05-06T10:18:31;99795.13;;;22.41;44.67
47883;BME280;37739;50.350;7.578;2023-05-06T10:20:58;99791.03;;;22.14;45.28
47883;BME280;37739;50.350;7.578;2023-05-06T10:23:36;99800.81;;;22.76;44.42
47883;BME280;37739;50.350;7.578;2023-05-06T10:26:13;99790.22;;;23.45;43.72
47883;BME280;37739;50.350;7.578;2023-05-06T10:28:48;99791.66;;;23.65;42.44
47883;BME280;37739;50.350;7.578;2023-05-06T10:31:19;99792.72;;;23.55;44.38
47883;BME280;37739;50.350;7.578;2023-05-06T10:33:49;99788.56;;;23.40;44.13
47883;BME280;37739;50.350;7.578;2023-05-06T10:36:22;99784.78;;;23.00;43.97
47883;BME280;37739;50.350;7.578;2023-05-06T10:38:55;99778.91;;;23.43;42.70
47883;BME280;37739;50.350;7.578;2023-05-06T10:41:22;99780.09;;;23.80;43.26
47883;BME280;37739;50.350;7.578;2023-05-06T10:43:48;99771.25;;;23.85;43.26
47883;BME280;37739;50.350;7.578;2023-05-06T10:46:21;99783.19;;;24.02;42.64
47883;BME280;37739;50.350;7.578;2023-05-06T10:51:28;99773.81;;;24.37;42.36
47883;BME280;37739;50.350;7.578;2023-05-06T10:54:07;99773.00;;;24.33;41.05
47883;BME280;37739;50.350;7.578;2023-05-06T10:56:36;99766.22;;;24.66;40.95
47883;BME280;37739;50.350;7.578;2023-05-06T10:59:10;99772.44;;;24.62;40.38
47883;BME280;37739;50.350;7.578;2023-05-06T11:01:37;99765.22;;;24.72;41.46
47883;BME280;37739;50.350;7.578;2023-05-06T11:04:09;99758.28;;;24.69;39.17
47883;BME280;37739;50.350;7.578;2023-05-06T11:06:44;99752.81;;;24.79;39.97
47883;BME280;37739;50.350;7.578;2023-05-06T11:09:31;99753.94;;;24.68;38.85
47883;BME280;37739;50.350;7.578;2023-05-06T11:12:04;99754.56;;;24.80;38.54
47883;BME280;37739;50.350;7.578;2023-05-06T11:14:35;99747.22;;;24.94;40.29
47883;BME280;37739;50.350;7.578;2023-05-06T11:17:05;99743.81;;;25.65;38.78
47883;BME280;37739;50.350;7.578;2023-05-06T11:21:59;99740.13;;;26.05;37.75
47883;BME280;37739;50.350;7.578;2023-05-06T11:24:28;99735.75;;;26.06;37.72
47883;BME280;37739;50.350;7.578;2023-05-06T11:26:56;99736.22;;;25.53;38.05
47883;BME280;37739;50.350;7.578;2023-05-06T11:29:25;99737.28;;;25.46;38.10
47883;BME280;37739;50.350;7.578;2023-05-06T11:31:51;99733.53;;;25.19;39.58
47883;BME280;37739;50.350;7.578;2023-05-06T11:34:31;99742.50;;;25.10;38.01
47883;BME280;37739;50.350;7.578;2023-05-06T11:37:00;99741.91;;;24.97;39.69
47883;BME280;37739;50.350;7.578;2023-05-06T11:39:28;99744.47;;;24.61;39.64
47883;BME280;37739;50.350;7.578;2023-05-06T11:41:58;99742.34;;;24.37;39.76
47883;BME280;37739;50.350;7.578;2023-05-06T11:44:25;99742.41;;;24.32;39.64
47883;BME280;37739;50.350;7.578;2023-05-06T11:46:54;99745.28;;;24.21;38.75
47883;BME280;37739;50.350;7.578;2023-05-06T11:49:22;99736.56;;;24.19;40.22
47883;BME280;37739;50.350;7.578;2023-05-06T11:51:48;99739.88;;;24.29;40.53
47883;BME280;37739;50.350;7.578;2023-05-06T11:54:15;99735.56;;;24.25;39.68
47883;BME280;37739;50.350;7.578;2023-05-06T11:56:51;99734.81;;;24.20;40.14
47883;BME280;37739;50.350;7.578;2023-05-06T11:59:24;99733.97;;;24.19;40.21
47883;BME280;37739;50.350;7.578;2023-05-06T12:01:50;99728.47;;;24.30;39.88
47883;BME280;37739;50.350;7.578;2023-05-06T12:04:15;99739.66;;;23.96;38.36
47883;BME280;37739;50.350;7.578;2023-05-06T12:06:41;99729.53;;;24.65;40.00
47883;BME280;37739;50.350;7.578;2023-05-06T12:09:09;99736.59;;;24.61;39.04
47883;BME280;37739;50.350;7.578;2023-05-06T12:11:38;99734.38;;;24.41;38.85
47883;BME280;37739;50.350;7.578;2023-05-06T12:14:06;99732.06;;;24.26;40.18
47883;BME280;37739;50.350;7.578;2023-05-06T12:16:33;99736.56;;;24.19;39.75
47883;BME280;37739;50.350;7.578;2023-05-06T12:18:59;99732.06;;;23.81;39.77
47883;BME280;37739;50.350;7.578;2023-05-06T12:21:25;99730.72;;;23.55;39.84
47883;BME280;37739;50.350;7.578;2023-05-06T12:23:56;99725.97;;;23.26;40.29
47883;BME280;37739;50.350;7.578;2023-05-06T12:26:21;99729.59;;;23.70;40.67
47883;BME280;37739;50.350;7.578;2023-05-06T12:29:10;99732.97;;;23.77;39.56
47883;BME280;37739;50.350;7.578;2023-05-06T12:31:36;99723.53;;;24.60;38.18
47883;BME280;37739;50.350;7.578;2023-05-06T12:34:02;99724.88;;;25.15;38.51
47883;BME280;37739;50.350;7.578;2023-05-06T12:36:38;99722.22;;;25.54;36.88
47883;BME280;37739;50.350;7.578;2023-05-06T12:39:03;99717.84;;;25.53;37.20
47883;BME280;37739;50.350;7.578;2023-05-06T12:47:03;99722.06;;;26.24;35.86
47883;BME280;37739;50.350;7.578;2023-05-06T12:49:48;99725.94;;;26.11;35.80
47883;BME280;37739;50.350;7.578;2023-05-06T12:52:14;99711.81;;;26.15;37.04
47883;BME280;37739;50.350;7.578;2023-05-06T12:54:40;99714.34;;;25.87;36.46
47883;BME280;37739;50.350;7.578;2023-05-06T12:57:08;99713.44;;;25.86;36.10
47883;BME280;37739;50.350;7.578;2023-05-06T12:59:34;99714.19;;;25.93;36.77
47883;BME280;37739;50.350;7.578;2023-05-06T13:02:03;99716.78;;;25.60;37.47
47883;BME280;37739;50.350;7.578;2023-05-06T13:04:31;99701.63;;;25.72;36.60
47883;BME280;37739;50.350;7.578;2023-05-06T13:06:57;99711.09;;;25.77;36.64
47883;BME280;37739;50.350;7.578;2023-05-06T13:09:25;99709.94;;;25.55;36.81
47883;BME280;37739;50.350;7.578;2023-05-06T13:11:51;99710.13;;;24.72;37.78
47883;BME280;37739;50.350;7.578;2023-05-06T13:14:16;99718.78;;;24.77;38.13
47883;BME280;37739;50.350;7.578;2023-05-06T13:16:42;99709.16;;;24.76;38.25
47883;BME280;37739;50.350;7.578;2023-05-06T13:19:10;99707.97;;;24.91;37.83
47883;BME280;37739;50.350;7.578;2023-05-06T13:21:37;99700.00;;;24.94;38.41